Time;durP1;ratioP1;P1;durP2;ratioP2;P2;SDS_P1;SDS_P2;PMS_P1;PMS_P2;Temp;Humidity;BMP_temperature;BMP_pressure;BME280_temperature;BME280_humidity;BME280_pressure;Samples;Min_cycle;Max_cycle;Signal;HPM_P1;HPM_P2
2021/08/02 00:00:15;;;;;;;17.55;2.95;;;20.50;92.50;;;;;;4993470;28;20038;-61
2021/08/02 00:03:04;;;;;;;2.78;1.77;;;20.50;92.10;;;;;;5008096;28;20026;-62
2021/08/02 00:05:35;;;;;;;2.28;1.30;;;20.60;91.80;;;;;;5025032;28;20042;-61
2021/08/02 00:08:03;;;;;;;3.10;1.95;;;20.60;91.70;;;;;;4992967;28;20023;-62
2021/08/02 00:10:33;;;;;;;2.13;1.48;;;20.50;91.80;;;;;;5008096;28;20053;-62
2021/08/02 00:13:07;;;;;;;4.93;2.23;;;20.60;92.20;;;;;;4992843;28;20376;-60
2021/08/02 00:15:35;;;;;;;3.78;1.83;;;20.50;92.40;;;;;;4993487;28;20054;-60
2021/08/02 00:18:02;;;;;;;8.10;1.90;;;20.50;92.40;;;;;;4992928;28;20050;-60
2021/08/02 00:20:32;;;;;;;2.95;1.77;;;20.40;92.80;;;;;;4993030;28;20046;-60
2021/08/02 00:23:02;;;;;;;4.70;1.83;;;20.40;93.30;;;;;;4992682;28;20050;-59
2021/08/02 00:25:30;;;;;;;4.55;1.63;;;20.30;93.50;;;;;;4992695;28;20061;-63
2021/08/02 00:27:57;;;;;;;3.58;1.60;;;20.30;93.60;;;;;;4992766;28;20041;-61
2021/08/02 00:30:24;;;;;;;2.45;1.30;;;20.30;93.30;;;;;;4993297;28;20034;-61
2021/08/02 00:32:52;;;;;;;4.05;1.58;;;20.30;93.40;;;;;;4993044;28;20525;-59
2021/08/02 00:35:20;;;;;;;4.25;1.92;;;20.30;93.40;;;;;;4975874;28;20467;-60
2021/08/02 00:38:21;;;;;;;3.90;1.40;;;20.30;93.50;;;;;;4993022;28;20490;-61
2021/08/02 00:40:48;;;;;;;5.18;1.80;;;20.30;93.80;;;;;;4985045;28;20046;-60
2021/08/02 00:43:53;;;;;;;2.33;1.27;;;20.30;94.00;;;;;;4992993;28;20034;-60
2021/08/02 00:46:29;;;;;;;1.98;1.15;;;20.30;94.00;;;;;;4991450;28;20045;-60
2021/08/02 00:49:03;;;;;;;7.20;2.05;;;20.20;94.00;;;;;;4992919;28;20037;-60
2021/08/02 00:51:38;;;;;;;4.32;1.70;;;20.20;94.40;;;;;;4992825;28;20043;-60
2021/08/02 00:54:07;;;;;;;4.47;1.80;;;20.20;94.40;;;;;;4995908;28;20042;-61
2021/08/02 00:56:35;;;;;;;2.05;1.50;;;20.20;94.20;;;;;;4996745;28;20042;-61
2021/08/02 00:59:07;;;;;;;9.80;1.45;;;20.20;94.20;;;;;;4995522;28;20049;-61
2021/08/02 01:01:36;;;;;;;3.00;1.80;;;20.20;93.40;;;;;;4996853;28;20037;-60
2021/08/02 01:04:04;;;;;;;2.20;1.40;;;20.10;92.80;;;;;;4995926;28;20057;-60
2021/08/02 01:06:33;;;;;;;3.15;1.33;;;20.10;92.40;;;;;;4996456;28;20054;-61
2021/08/02 01:09:12;;;;;;;3.72;1.10;;;20.20;91.90;;;;;;4996756;28;20045;-60
2021/08/02 01:11:39;;;;;;;3.45;1.55;;;20.20;92.00;;;;;;4996814;28;20026;-61
2021/08/02 01:14:06;;;;;;;2.63;1.73;;;20.10;91.70;;;;;;4995799;28;20042;-60
2021/08/02 01:16:35;;;;;;;3.22;1.38;;;20.10;91.10;;;;;;5011549;28;20403;-59
2021/08/02 01:19:08;;;;;;;3.20;1.80;;;20.00;91.20;;;;;;4996576;28;20035;-60
2021/08/02 01:21:40;;;;;;;2.13;1.35;;;20.00;91.30;;;;;;5010804;28;20273;-59
2021/08/02 01:24:11;;;;;;;2.80;1.85;;;20.00;91.50;;;;;;4996363;28;20054;-60
2021/08/02 01:26:43;;;;;;;2.65;1.30;;;20.00;91.70;;;;;;4996181;28;20038;-61
2021/08/02 01:29:55;;;;;;;6.22;2.00;;;20.10;92.00;;;;;;4996369;28;20499;-61
2021/08/02 01:32:23;;;;;;;2.55;1.40;;;20.00;92.40;;;;;;4994809;28;20027;-61
2021/08/02 01:34:55;;;;;;;2.85;1.40;;;20.00;92.50;;;;;;4995231;28;20042;-59
2021/08/02 01:37:21;;;;;;;2.13;1.52;;;19.90;92.30;;;;;;4995792;28;20051;-62
2021/08/02 01:39:55;;;;;;;3.13;1.15;;;19.90;92.30;;;;;;4996111;28;20034;-62
2021/08/02 01:42:24;;;;;;;2.63;1.30;;;19.80;92.50;;;;;;4995060;28;20360;-60
2021/08/02 01:44:52;;;;;;;2.22;1.35;;;19.80;92.50;;;;;;4994770;28;20054;-60
2021/08/02 01:47:41;;;;;;;5.68;1.23;;;19.80;92.30;;;;;;4994881;28;20034;-59
2021/08/02 01:50:35;;;;;;;4.82;1.30;;;19.80;92.60;;;;;;4995798;28;20050;-60
2021/08/02 01:53:22;;;;;;;2.45;1.60;;;19.90;92.70;;;;;;4995548;28;20061;-61
2021/08/02 01:56:06;;;;;;;3.13;1.23;;;19.90;92.60;;;;;;4996191;28;20034;-60
2021/08/02 01:58:49;;;;;;;3.15;1.38;;;19.80;91.70;;;;;;4995371;28;20431;-60
2021/08/02 02:01:56;;;;;;;4.35;1.58;;;19.90;91.90;;;;;;4994169;28;20050;-60
2021/08/02 02:04:46;;;;;;;2.37;1.50;;;19.90;92.30;;;;;;4994510;28;20041;-61
2021/08/02 02:07:16;;;;;;;3.80;1.50;;;19.80;92.50;;;;;;5022205;28;20046;-61
2021/08/02 02:09:57;;;;;;;;;;;19.80;92.30;;;;;;4994492;28;20050;-60
2021/08/02 02:12:24;;;;;;;2.58;1.52;;;19.80;92.50;;;;;;4994270;28;20310;-60
2021/08/02 02:14:55;;;;;;;2.53;1.50;;;19.80;91.60;;;;;;4994120;28;20057;-61
2021/08/02 02:17:25;;;;;;;2.58;1.50;;;19.80;91.30;;;;;;5010683;28;20057;-61
2021/08/02 02:19:54;;;;;;;2.00;1.20;;;19.80;91.20;;;;;;4993730;28;20046;-60
2021/08/02 02:22:24;;;;;;;1.85;1.45;;;19.80;90.70;;;;;;4995189;28;20031;-59
2021/08/02 02:24:53;;;;;;;2.95;1.58;;;19.80;90.00;;;;;;4995268;28;20026;-61
2021/08/02 02:27:20;;;;;;;2.15;1.60;;;19.80;90.00;;;;;;4994375;28;20026;-61
2021/08/02 02:29:56;;;;;;;2.25;1.50;;;19.80;90.10;;;;;;4993970;28;20399;-61
2021/08/02 02:32:25;;;;;;;2.55;1.48;;;19.80;90.10;;;;;;5010486;28;20037;-62
2021/08/02 02:34:52;;;;;;;1.38;1.05;;;19.80;90.20;;;;;;4994953;28;20030;-60
2021/08/02 02:37:24;;;;;;;3.45;2.03;;;19.80;90.10;;;;;;4993872;28;20947;-61
2021/08/02 02:39:53;;;;;;;1.63;1.27;;;19.80;90.00;;;;;;4993798;28;20058;-62
2021/08/02 02:42:22;;;;;;;2.63;1.80;;;19.70;90.00;;;;;;4994733;28;20040;-61
2021/08/02 02:44:50;;;;;;;3.90;2.10;;;19.70;90.20;;;;;;4994925;28;20049;-61
2021/08/02 02:47:18;;;;;;;3.33;1.52;;;19.70;90.20;;;;;;4993136;28;20471;-60
2021/08/02 02:49:46;;;;;;;2.95;1.73;;;19.70;89.10;;;;;;4993001;28;20050;-61
2021/08/02 02:52:14;;;;;;;3.67;1.42;;;19.60;87.30;;;;;;4994602;28;20383;-60
2021/08/02 02:54:47;;;;;;;1.98;1.35;;;19.60;88.50;;;;;;4994454;28;20065;-60
2021/08/02 02:57:14;;;;;;;4.40;1.25;;;19.50;89.30;;;;;;4977563;28;20479;-60
2021/08/02 02:59:41;;;;;;;4.05;1.20;;;19.50;88.90;;;;;;4993434;28;20037;-60
2021/08/02 03:02:10;;;;;;;2.28;1.50;;;19.40;88.50;;;;;;4993189;28;20053;-61
2021/08/02 03:04:43;;;;;;;4.25;1.17;;;19.30;88.90;;;;;;4994539;28;20034;-60
2021/08/02 03:07:12;;;;;;;2.17;1.33;;;19.40;89.00;;;;;;4994513;28;20034;-60
2021/08/02 03:09:42;;;;;;;2.17;1.02;;;19.40;88.10;;;;;;4993159;28;20046;-60
2021/08/02 03:12:13;;;;;;;2.40;1.17;;;19.40;87.60;;;;;;5025911;28;20026;-61
2021/08/02 03:14:40;;;;;;;2.70;1.10;;;19.40;86.90;;;;;;5024193;28;20361;-60
2021/08/02 03:17:08;;;;;;;2.80;0.90;;;19.50;85.80;;;;;;4994423;28;20398;-61
2021/08/02 03:19:36;;;;;;;1.75;0.98;;;19.40;86.20;;;;;;4994267;28;20387;-60
2021/08/02 03:22:34;;;;;;;2.58;1.45;;;19.50;85.80;;;;;;4994163;28;20030;-61
2021/08/02 03:25:24;;;;;;;3.33;1.20;;;19.50;85.40;;;;;;4993989;28;20056;-60
2021/08/02 03:27:57;;;;;;;2.83;0.98;;;19.50;85.10;;;;;;4994123;28;20053;-60
2021/08/02 03:30:28;;;;;;;1.40;0.90;;;19.40;84.70;;;;;;4993812;28;20386;-61
2021/08/02 03:32:55;;;;;;;3.47;1.10;;;19.40;82.80;;;;;;4992452;28;20034;-61
2021/08/02 03:35:22;;;;;;;2.70;1.30;;;19.40;86.10;;;;;;4993707;28;20030;-61
2021/08/02 03:37:50;;;;;;;3.38;1.50;;;19.30;87.10;;;;;;4993698;28;20089;-61
2021/08/02 03:40:18;;;;;;;2.92;1.33;;;19.20;88.20;;;;;;4993821;28;20054;-61
2021/08/02 03:42:46;;;;;;;4.32;1.55;;;19.00;88.70;;;;;;4993794;28;20041;-60
2021/08/02 03:45:15;;;;;;;2.60;1.55;;;19.00;88.80;;;;;;4993234;28;20046;-59
2021/08/02 03:47:43;;;;;;;2.83;1.30;;;18.90;88.80;;;;;;4993595;28;20033;-60
2021/08/02 03:50:10;;;;;;;1.75;1.20;;;18.90;88.80;;;;;;4992246;28;20043;-60
2021/08/02 03:52:37;;;;;;;1.77;1.08;;;19.00;88.90;;;;;;4993767;28;20403;-59
2021/08/02 03:55:06;;;;;;;3.67;1.38;;;19.00;89.50;;;;;;4993634;28;20463;-60
2021/08/02 03:57:33;;;;;;;4.88;1.40;;;18.90;88.90;;;;;;4993515;28;20038;-61
2021/08/02 04:00:00;;;;;;;2.60;1.30;;;18.90;89.20;;;;;;4993606;28;20049;-61
2021/08/02 04:02:26;;;;;;;3.70;1.40;;;18.90;89.80;;;;;;4993319;28;20391;-62
2021/08/02 04:04:53;;;;;;;4.40;1.40;;;18.90;89.70;;;;;;4993017;28;20046;-61
2021/08/02 04:07:20;;;;;;;3.10;1.55;;;18.90;90.00;;;;;;4993308;28;20037;-61
2021/08/02 04:09:46;;;;;;;2.67;1.40;;;18.80;90.10;;;;;;4993566;28;20475;-61
2021/08/02 04:12:13;;;;;;;1.90;1.23;;;18.90;89.20;;;;;;4993219;28;20046;-61
2021/08/02 04:14:39;;;;;;;2.80;1.50;;;18.80;88.70;;;;;;4994178;28;20046;-61
2021/08/02 04:17:06;;;;;;;3.58;1.23;;;18.80;88.90;;;;;;4992941;28;20042;-58
2021/08/02 04:19:33;;;;;;;3.00;1.20;;;18.80;88.60;;;;;;4993780;28;20042;-61
2021/08/02 04:21:59;;;;;;;4.00;1.00;;;18.70;88.20;;;;;;4991998;28;20073;-60
2021/08/02 04:24:27;;;;;;;3.10;1.60;;;18.70;88.70;;;;;;4993287;28;20030;-60
2021/08/02 04:26:54;;;;;;;3.35;0.90;;;18.80;88.40;;;;;;4990921;28;20049;-60
2021/08/02 04:29:20;;;;;;;2.05;1.15;;;18.80;87.10;;;;;;4993427;28;20035;-59
2021/08/02 04:31:47;;;;;;;2.67;1.30;;;18.80;87.50;;;;;;4992043;28;20061;-60
2021/08/02 04:34:13;;;;;;;2.85;1.00;;;18.70;87.80;;;;;;4993033;28;20030;-59
2021/08/02 04:36:40;;;;;;;3.53;1.30;;;18.70;88.40;;;;;;5024852;28;20409;-59
2021/08/02 04:39:07;;;;;;;3.47;1.08;;;18.60;88.90;;;;;;4992011;28;20360;-60
2021/08/02 04:41:33;;;;;;;3.38;1.10;;;18.70;90.10;;;;;;4993225;28;20061;-60
2021/08/02 04:44:00;;;;;;;2.85;1.33;;;18.60;90.20;;;;;;4992447;28;20054;-60
2021/08/02 04:46:26;;;;;;;5.60;1.30;;;18.70;90.00;;;;;;4991958;28;20042;-61
2021/08/02 04:48:52;;;;;;;3.17;1.33;;;18.60;89.60;;;;;;5007879;28;20513;-61
2021/08/02 04:51:19;;;;;;;1.95;1.15;;;18.60;89.30;;;;;;4992995;28;20039;-60
2021/08/02 04:53:46;;;;;;;3.63;1.25;;;18.60;89.40;;;;;;4992785;28;20057;-60
2021/08/02 04:56:12;;;;;;;1.70;1.20;;;18.60;89.70;;;;;;4992868;28;20046;-60
2021/08/02 04:58:39;;;;;;;1.98;1.38;;;18.60;90.10;;;;;;4992209;28;20042;-59
2021/08/02 05:01:05;;;;;;;5.32;1.80;;;18.60;90.00;;;;;;4991450;28;20050;-60
2021/08/02 05:03:33;;;;;;;4.15;2.83;;;18.60;89.50;;;;;;4993032;28;20030;-60
2021/08/02 05:05:59;;;;;;;4.50;1.42;;;18.60;88.90;;;;;;4992478;28;20065;-60
2021/08/02 05:08:26;;;;;;;4.68;1.83;;;18.70;89.40;;;;;;4992196;28;20054;-60
2021/08/02 05:10:52;;;;;;;2.55;1.42;;;18.80;89.10;;;;;;4991628;28;20044;-60
2021/08/02 05:13:19;;;;;;;3.75;1.48;;;18.80;89.80;;;;;;5007767;28;20485;-60
2021/08/02 05:15:46;;;;;;;18.67;3.50;;;18.80;88.70;;;;;;4992602;28;20070;-60
2021/08/02 05:18:14;;;;;;;3.72;1.20;;;18.70;89.20;;;;;;4991332;28;20046;-61
2021/08/02 05:20:42;;;;;;;3.53;1.88;;;18.80;89.30;;;;;;4992194;28;20054;-59
2021/08/02 05:23:09;;;;;;;4.32;1.85;;;18.80;89.50;;;;;;4992652;28;20498;-60
2021/08/02 05:25:35;;;;;;;2.88;1.40;;;18.80;89.20;;;;;;4992483;28;20259;-60
2021/08/02 05:28:02;;;;;;;2.42;1.42;;;18.80;89.00;;;;;;4992295;28;20058;-60
2021/08/02 05:30:28;;;;;;;9.05;2.50;;;18.90;89.10;;;;;;4991988;28;20034;-60
2021/08/02 05:32:55;;;;;;;2.00;1.42;;;18.90;89.20;;;;;;4975055;28;20376;-61
2021/08/02 05:35:22;;;;;;;4.22;1.38;;;18.90;88.40;;;;;;4992533;28;20042;-61
2021/08/02 05:37:48;;;;;;;3.60;2.08;;;19.00;88.40;;;;;;4992333;28;20039;-60
2021/08/02 05:40:15;;;;;;;3.20;2.00;;;19.10;88.90;;;;;;4996092;28;20038;-60
2021/08/02 05:42:41;;;;;;;4.47;1.63;;;19.10;88.50;;;;;;4995612;28;20148;-61
2021/08/02 05:45:09;;;;;;;2.70;1.40;;;19.20;87.40;;;;;;4995815;28;20414;-60
2021/08/02 05:47:35;;;;;;;3.08;1.30;;;19.30;86.10;;;;;;4995912;28;20038;-59
2021/08/02 05:50:03;;;;;;;4.00;1.60;;;19.40;86.00;;;;;;4995991;28;20351;-61
2021/08/02 05:52:31;;;;;;;4.38;1.33;;;19.50;85.20;;;;;;4995725;28;20065;-60
2021/08/02 05:54:57;;;;;;;1.98;1.20;;;19.60;83.40;;;;;;4995779;28;20038;-59
2021/08/02 05:57:25;;;;;;;5.18;1.58;;;19.60;83.20;;;;;;4995375;28;20073;-59
2021/08/02 05:59:52;;;;;;;3.40;1.95;;;19.70;82.20;;;;;;4995934;28;20459;-60
2021/08/02 06:02:18;;;;;;;3.28;1.73;;;19.80;82.40;;;;;;4995390;28;20035;-60
2021/08/02 06:04:45;;;;;;;1.88;1.10;;;19.80;83.00;;;;;;4995629;28;20031;-60
2021/08/02 06:07:11;;;;;;;2.15;1.10;;;19.80;82.40;;;;;;4995385;28;20058;-61
2021/08/02 06:09:38;;;;;;;4.05;1.10;;;19.80;82.20;;;;;;4995312;28;20353;-60
2021/08/02 06:12:05;;;;;;;2.80;1.05;;;19.80;82.50;;;;;;5010886;28;20045;-61
2021/08/02 06:14:31;;;;;;;2.63;1.40;;;20.80;80.40;;;;;;4995435;28;20030;-65
2021/08/02 06:16:57;;;;;;;11.18;1.92;;;22.40;72.60;;;;;;4994055;28;20487;-66
2021/08/02 06:19:24;;;;;;;2.47;1.55;;;21.80;72.40;;;;;;4994966;28;20038;-63
2021/08/02 06:21:50;;;;;;;4.15;1.58;;;21.80;76.00;;;;;;4994241;28;20041;-62
2021/08/02 06:24:17;;;;;;;1.77;1.10;;;23.10;68.50;;;;;;4995238;28;20031;-62
2021/08/02 06:26:43;;;;;;;5.95;1.75;;;23.20;65.90;;;;;;4995550;28;20038;-62
2021/08/02 06:29:10;;;;;;;2.85;1.55;;;22.70;68.50;;;;;;5026855;28;20226;-62
2021/08/02 06:31:36;;;;;;;2.70;1.50;;;22.30;70.90;;;;;;4995139;28;20057;-61
2021/08/02 06:34:03;;;;;;;4.10;1.60;;;22.00;72.30;;;;;;4994917;28;20506;-63
2021/08/02 06:36:29;;;;;;;3.80;1.50;;;22.20;71.30;;;;;;4995273;28;20034;-62
2021/08/02 06:38:56;;;;;;;4.20;1.58;;;22.20;70.30;;;;;;4994736;28;20368;-62
2021/08/02 06:41:22;;;;;;;4.28;1.55;;;22.10;69.50;;;;;;4995275;28;20042;-62
2021/08/02 06:43:49;;;;;;;3.58;1.77;;;22.10;69.40;;;;;;4993902;28;20038;-61
2021/08/02 06:46:16;;;;;;;3.65;1.70;;;22.20;69.20;;;;;;4993673;28;20050;-62
2021/08/02 06:48:42;;;;;;;4.25;1.70;;;22.30;68.10;;;;;;4995018;28;20041;-61
2021/08/02 06:51:10;;;;;;;3.30;1.80;;;22.40;68.10;;;;;;5024294;28;20071;-61
2021/08/02 06:53:36;;;;;;;3.08;1.67;;;22.50;67.30;;;;;;4994894;28;20031;-61
2021/08/02 06:56:03;;;;;;;3.50;1.48;;;22.60;66.90;;;;;;4994813;28;20046;-62
2021/08/02 06:58:30;;;;;;;3.60;1.40;;;22.60;66.60;;;;;;4994983;28;20398;-61
2021/08/02 07:00:56;;;;;;;4.28;1.63;;;22.70;65.90;;;;;;4994731;28;20391;-60
2021/08/02 07:03:23;;;;;;;4.07;1.42;;;22.80;66.40;;;;;;4994845;28;20038;-60
2021/08/02 07:05:49;;;;;;;6.93;3.70;;;22.90;66.60;;;;;;4992153;28;20050;-63
2021/08/02 07:08:16;;;;;;;3.35;1.77;;;23.00;66.10;;;;;;4994390;28;20046;-63
2021/08/02 07:10:43;;;;;;;3.78;2.10;;;23.00;65.10;;;;;;4994685;28;20030;-62
2021/08/02 07:13:09;;;;;;;3.22;1.35;;;22.90;64.70;;;;;;4994659;28;20038;-65
2021/08/02 07:15:36;;;;;;;5.65;1.95;;;22.80;64.20;;;;;;4994786;28;20050;-65
2021/08/02 07:18:02;;;;;;;3.55;1.85;;;23.00;64.20;;;;;;4994359;28;20039;-65
2021/08/02 07:20:29;;;;;;;3.70;1.88;;;23.10;63.80;;;;;;4994542;28;20030;-64
2021/08/02 07:22:55;;;;;;;6.68;1.42;;;22.90;63.80;;;;;;4994327;28;20035;-65
2021/08/02 07:25:22;;;;;;;2.17;1.60;;;23.10;64.10;;;;;;4994175;28;20042;-61
2021/08/02 07:27:48;;;;;;;4.35;1.17;;;23.20;64.20;;;;;;4994358;28;20031;-63
2021/08/02 07:30:15;;;;;;;3.10;1.50;;;23.40;64.20;;;;;;5009105;28;20046;-63
2021/08/02 07:32:41;;;;;;;1.98;1.30;;;23.50;63.60;;;;;;5024449;28;20375;-63
2021/08/02 07:35:08;;;;;;;2.67;1.40;;;23.60;62.90;;;;;;4993410;28;20054;-63
2021/08/02 07:37:39;;;;;;;4.60;1.70;;;23.50;62.60;;;;;;4993262;28;20050;-63
2021/08/02 07:40:06;;;;;;;2.35;1.48;;;23.40;62.80;;;;;;4993960;28;20065;-64
2021/08/02 07:42:33;;;;;;;2.15;1.30;;;23.50;63.00;;;;;;4991848;28;20058;-62
2021/08/02 07:44:59;;;;;;;2.35;1.40;;;23.60;62.50;;;;;;4992901;28;20046;-63
2021/08/02 07:47:26;;;;;;;2.75;1.33;;;23.80;62.20;;;;;;4994147;28;20155;-62
2021/08/02 07:49:52;;;;;;;2.20;1.33;;;23.90;61.60;;;;;;4993374;28;20053;-62
2021/08/02 07:52:18;;;;;;;3.13;1.40;;;24.00;61.30;;;;;;5008510;28;20046;-63
2021/08/02 07:54:45;;;;;;;2.53;1.20;;;24.10;61.70;;;;;;4993141;28;20045;-62
2021/08/02 07:57:11;;;;;;;1.90;1.33;;;24.20;60.90;;;;;;4993509;28;20427;-63
2021/08/02 07:59:38;;;;;;;2.70;1.50;;;24.10;61.50;;;;;;4993495;28;20031;-62
2021/08/02 08:02:04;;;;;;;2.13;1.30;;;23.90;61.60;;;;;;4993423;28;20042;-62
2021/08/02 08:04:31;;;;;;;4.35;1.20;;;23.90;61.90;;;;;;4993379;28;20045;-62
2021/08/02 08:06:57;;;;;;;2.03;1.23;;;23.90;62.00;;;;;;4993564;28;20038;-62
2021/08/02 08:09:24;;;;;;;2.50;1.40;;;24.20;61.60;;;;;;4993649;28;20487;-61
2021/08/02 08:11:51;;;;;;;2.45;1.40;;;24.30;61.50;;;;;;4993499;28;20047;-62
2021/08/02 08:14:17;;;;;;;1.65;1.10;;;24.40;60.50;;;;;;4993583;28;20057;-62
2021/08/02 08:16:44;;;;;;;5.45;2.00;;;24.40;59.90;;;;;;4993114;28;20043;-62
2021/08/02 08:19:10;;;;;;;1.70;1.15;;;24.30;59.40;;;;;;4993110;28;20046;-62
2021/08/02 08:21:37;;;;;;;2.10;1.30;;;24.30;59.30;;;;;;4993331;28;20026;-62
2021/08/02 08:24:05;;;;;;;3.15;1.20;;;24.40;58.60;;;;;;4993411;28;20042;-62
2021/08/02 08:26:34;;;;;;;2.17;1.30;;;24.60;58.70;;;;;;4992823;28;20057;-62
2021/08/02 08:29:02;;;;;;;1.25;0.85;;;24.60;58.30;;;;;;4993209;28;20046;-61
2021/08/02 08:31:29;;;;;;;2.95;1.20;;;24.50;58.40;;;;;;4993160;28;20034;-61
2021/08/02 08:33:56;;;;;;;1.55;1.05;;;24.60;57.60;;;;;;4993176;28;20069;-61
2021/08/02 08:36:23;;;;;;;2.88;1.20;;;24.50;57.50;;;;;;4993123;28;20038;-61
2021/08/02 08:38:50;;;;;;;3.30;1.20;;;24.50;57.20;;;;;;4992906;28;20509;-62
2021/08/02 08:41:21;;;;;;;3.13;1.20;;;24.60;57.00;;;;;;4992738;28;20043;-61
2021/08/02 08:43:51;;;;;;;4.18;1.45;;;24.40;56.60;;;;;;4992738;28;20057;-61
2021/08/02 08:46:19;;;;;;;;;;;24.30;57.40;;;;;;4993284;28;20037;-60
2021/08/02 08:48:46;;;;;;;3.25;1.10;;;24.50;57.20;;;;;;4993294;28;19921;-61
2021/08/02 08:51:13;;;;;;;2.78;1.58;;;24.70;56.70;;;;;;4992616;28;20041;-61
2021/08/02 08:53:44;;;;;;;4.05;1.50;;;24.20;56.90;;;;;;4993267;28;20383;-62
2021/08/02 08:56:19;;;;;;;0.90;0.80;;;24.10;57.40;;;;;;4992486;28;20034;-60
2021/08/02 08:58:46;;;;;;;3.83;2.28;;;24.40;54.40;;;;;;4992665;28;20054;-61
2021/08/02 09:01:12;;;;;;;1.67;1.10;;;24.60;54.00;;;;;;4993178;28;20356;-61
2021/08/02 09:03:51;;;;;;;4.60;1.15;;;24.60;54.80;;;;;;5011462;28;20057;-61
2021/08/02 09:06:18;;;;;;;1.83;1.30;;;24.30;55.90;;;;;;5012615;28;20490;-61
2021/08/02 09:08:45;;;;;;;4.25;1.20;;;24.50;55.70;;;;;;5012331;28;20374;-61
2021/08/02 09:11:22;;;;;;;1.73;1.13;;;24.80;55.70;;;;;;5011769;28;20042;-61
2021/08/02 09:13:49;;;;;;;2.22;1.33;;;24.90;54.90;;;;;;5014202;28;20393;-61
2021/08/02 09:16:21;;;;;;;3.78;1.42;;;24.80;54.60;;;;;;5016525;28;20042;-61
2021/08/02 09:19:05;;;;;;;4.20;1.15;;;24.50;54.60;;;;;;5016032;28;20042;-61
2021/08/02 09:21:50;;;;;;;3.47;1.60;;;24.50;54.60;;;;;;5015795;28;20065;-60
2021/08/02 09:24:34;;;;;;;3.45;1.85;;;24.70;54.40;;;;;;5015958;28;20061;-60
2021/08/02 09:27:01;;;;;;;4.65;1.70;;;25.00;56.00;;;;;;5016134;28;20387;-61
2021/08/02 09:29:32;;;;;;;4.20;1.73;;;25.00;55.00;;;;;;5015989;28;20041;-60
2021/08/02 09:32:00;;;;;;;1.40;1.10;;;25.10;55.50;;;;;;5015977;28;20024;-60
2021/08/02 09:34:27;;;;;;;3.15;1.67;;;25.30;55.30;;;;;;5015936;28;20068;-60
2021/08/02 09:36:59;;;;;;;3.63;1.85;;;25.10;54.90;;;;;;5015990;28;20034;-60
2021/08/02 09:39:30;;;;;;;2.47;1.67;;;25.00;54.90;;;;;;5015932;28;20069;-60
2021/08/02 09:42:08;;;;;;;3.58;1.25;;;24.80;55.00;;;;;;5014732;28;20022;-60
2021/08/02 09:44:35;;;;;;;4.32;1.35;;;24.40;55.00;;;;;;5015562;28;20054;-60
2021/08/02 09:47:06;;;;;;;3.25;1.60;;;24.60;55.00;;;;;;5015849;28;20045;-60
2021/08/02 09:49:47;;;;;;;3.35;1.45;;;24.70;54.50;;;;;;5015748;28;20046;-60
2021/08/02 09:52:14;;;;;;;;;;;24.70;54.90;;;;;;5016177;28;20065;-59
2021/08/02 09:54:41;;;;;;;3.95;1.55;;;24.90;54.80;;;;;;5015492;28;19916;-60
2021/08/02 09:57:08;;;;;;;2.90;1.40;;;25.10;54.40;;;;;;5014521;28;20502;-61
2021/08/02 09:59:42;;;;;;;1.90;1.17;;;25.10;54.10;;;;;;5014067;28;20061;-60
2021/08/02 10:02:10;;;;;;;3.75;1.63;;;25.30;54.20;;;;;;5015790;28;20034;-60
2021/08/02 10:04:37;;;;;;;3.42;1.40;;;25.40;53.50;;;;;;5015358;28;20046;-60
2021/08/02 10:07:09;;;;;;;5.82;2.97;;;25.40;53.20;;;;;;5015316;28;20048;-60
2021/08/02 10:09:37;;;;;;;3.50;1.70;;;25.20;53.40;;;;;;5015335;28;20049;-60
2021/08/02 10:12:04;;;;;;;4.82;1.52;;;25.20;53.80;;;;;;5015192;28;20052;-60
2021/08/02 10:14:32;;;;;;;4.03;2.00;;;25.40;54.10;;;;;;5015470;28;20061;-59
2021/08/02 10:17:05;;;;;;;4.90;1.85;;;25.30;53.80;;;;;;5015199;28;20026;-60
2021/08/02 10:19:55;;;;;;;5.75;2.95;;;25.10;54.30;;;;;;5015390;28;20057;-60
2021/08/02 10:22:22;;;;;;;3.27;1.60;;;25.40;54.30;;;;;;5016889;28;20046;-61
2021/08/02 10:24:51;;;;;;;9.15;2.38;;;25.50;53.50;;;;;;5013511;28;20475;-61
2021/08/02 10:27:25;;;;;;;2.97;1.73;;;25.50;53.10;;;;;;5014697;28;20160;-58
2021/08/02 10:29:52;;;;;;;6.85;1.75;;;25.50;52.70;;;;;;5015250;28;20050;-60
2021/08/02 10:32:27;;;;;;;2.53;1.33;;;25.50;52.60;;;;;;5014813;28;20050;-60
2021/08/02 10:34:56;;;;;;;4.53;1.63;;;25.60;52.00;;;;;;5014904;28;20045;-60
2021/08/02 10:37:36;;;;;;;4.10;1.45;;;25.50;52.40;;;;;;5014524;28;20058;-60
2021/08/02 10:40:08;;;;;;;3.08;1.40;;;25.60;52.30;;;;;;5014875;28;20038;-59
2021/08/02 10:43:04;;;;;;;3.60;1.20;;;25.60;51.00;;;;;;5014804;28;20096;-60
2021/08/02 10:45:32;;;;;;;3.92;1.83;;;25.50;49.80;;;;;;5017895;28;20049;-60
2021/08/02 10:47:59;;;;;;;4.32;1.55;;;25.30;50.90;;;;;;5014810;28;20061;-60
2021/08/02 10:50:28;;;;;;;3.00;1.50;;;25.20;51.40;;;;;;5014938;28;20045;-61
2021/08/02 10:52:55;;;;;;;3.95;1.75;;;25.50;52.00;;;;;;5014369;28;20033;-60
2021/08/02 10:55:25;;;;;;;4.82;1.65;;;25.80;52.20;;;;;;5014581;28;20042;-61
2021/08/02 10:57:59;;;;;;;3.22;1.58;;;25.80;52.00;;;;;;5014097;28;20034;-60
2021/08/02 11:00:27;;;;;;;4.28;1.73;;;25.90;52.10;;;;;;5014778;28;20042;-60
2021/08/02 11:02:56;;;;;;;4.22;1.30;;;26.00;51.30;;;;;;5014164;28;20061;-60
2021/08/02 11:05:28;;;;;;;6.82;1.92;;;26.00;50.90;;;;;;5014434;28;20057;-60
2021/08/02 11:08:04;;;;;;;7.15;3.25;;;26.00;51.40;;;;;;5013964;28;20501;-60
2021/08/02 11:10:32;;;;;;;4.72;1.63;;;26.10;51.50;;;;;;5014384;28;20394;-60
2021/08/02 11:12:59;;;;;;;2.80;1.50;;;26.00;51.30;;;;;;5012682;28;20041;-61
2021/08/02 11:15:25;;;;;;;4.30;2.00;;;26.00;50.40;;;;;;5013961;28;20053;-60
2021/08/02 11:17:53;;;;;;;9.05;1.50;;;26.00;50.50;;;;;;5013674;28;20501;-61
2021/08/02 11:20:20;;;;;;;5.60;2.10;;;26.10;50.40;;;;;;5013980;28;20041;-61
2021/08/02 11:22:52;;;;;;;4.22;1.75;;;25.80;50.70;;;;;;5014018;28;20034;-60
2021/08/02 11:25:27;;;;;;;3.22;1.52;;;25.70;50.00;;;;;;5013827;28;20053;-60
2021/08/02 11:27:57;;;;;;;3.13;1.52;;;25.60;49.10;;;;;;5013662;28;20022;-60
2021/08/02 11:30:25;;;;;;;4.65;1.67;;;25.60;48.80;;;;;;5013633;28;20101;-60
2021/08/02 11:32:53;;;;;;;3.58;1.17;;;25.40;47.70;;;;;;5013428;28;20038;-59
2021/08/02 11:35:29;;;;;;;3.13;1.50;;;25.50;46.60;;;;;;5013696;28;20395;-60
2021/08/02 11:37:56;;;;;;;3.50;1.50;;;25.70;47.30;;;;;;5013527;28;20933;-60
2021/08/02 11:40:26;;;;;;;3.72;1.88;;;25.70;48.90;;;;;;5013331;28;20054;-60
2021/08/02 11:43:00;;;;;;;;;;;25.80;49.60;;;;;;5013902;28;20022;-60
2021/08/02 11:45:28;;;;;;;5.03;2.28;;;26.00;50.20;;;;;;5012945;28;19909;-61
2021/08/02 11:47:58;;;;;;;30.08;21.15;;;26.00;49.30;;;;;;5013149;28;20053;-61
2021/08/02 11:50:30;;;;;;;20.15;14.30;;;25.90;50.00;;;;;;5013360;28;20042;-60
2021/08/02 11:53:03;;;;;;;12.93;7.35;;;25.80;49.80;;;;;;5013584;28;20045;-60
2021/08/02 11:55:30;;;;;;;14.25;10.30;;;25.90;49.40;;;;;;5013442;28;20044;-61
2021/08/02 11:58:01;;;;;;;7.22;4.80;;;26.00;49.30;;;;;;5012969;28;20486;-60
2021/08/02 12:00:28;;;;;;;15.45;9.60;;;26.10;48.60;;;;;;5013290;28;20037;-60
2021/08/02 12:03:06;;;;;;;10.05;7.03;;;26.10;48.70;;;;;;5013238;28;20030;-60
2021/08/02 12:05:32;;;;;;;16.75;10.50;;;26.00;48.20;;;;;;5013087;28;20038;-61
2021/08/02 12:08:11;;;;;;;19.65;11.02;;;26.00;48.50;;;;;;5012918;28;20052;-61
2021/08/02 12:10:38;;;;;;;9.48;3.33;;;25.90;47.30;;;;;;5013230;28;20049;-61
2021/08/02 12:13:13;;;;;;;5.03;2.22;;;25.80;45.60;;;;;;5013507;28;20026;-61
2021/08/02 12:15:58;;;;;;;2.45;1.55;;;26.00;46.00;;;;;;5012666;28;20049;-62
2021/08/02 12:18:29;;;;;;;4.47;1.75;;;25.90;45.80;;;;;;5012350;28;20045;-61
2021/08/02 12:21:10;;;;;;;4.30;1.15;;;25.90;45.60;;;;;;5013122;28;20049;-60
2021/08/02 12:23:37;;;;;;;7.07;1.63;;;25.90;45.10;;;;;;5013295;28;20038;-62
2021/08/02 12:26:15;;;;;;;2.90;1.10;;;26.00;45.60;;;;;;5013080;28;20065;-62
2021/08/02 12:28:43;;;;;;;3.05;1.30;;;26.20;46.10;;;;;;5013028;28;20029;-61
2021/08/02 12:31:18;;;;;;;3.75;1.40;;;26.20;46.20;;;;;;5012609;28;20033;-61
2021/08/02 12:33:46;;;;;;;3.63;1.88;;;26.40;46.60;;;;;;5013133;28;20057;-61
2021/08/02 12:36:15;;;;;;;4.00;1.77;;;26.40;46.50;;;;;;5012589;28;20037;-61
2021/08/02 12:38:44;;;;;;;3.72;1.45;;;26.50;47.20;;;;;;5011223;28;20046;-61
2021/08/02 12:41:11;;;;;;;2.85;1.50;;;26.40;46.90;;;;;;5012636;28;20050;-60
2021/08/02 12:43:38;;;;;;;3.45;1.35;;;26.40;47.50;;;;;;5012941;28;20041;-61
2021/08/02 12:46:04;;;;;;;2.40;1.40;;;26.60;46.90;;;;;;5012766;28;20148;-62
2021/08/02 12:48:31;;;;;;;3.20;1.25;;;26.50;46.70;;;;;;5012182;28;20406;-61
2021/08/02 12:50:58;;;;;;;3.67;1.35;;;26.40;46.40;;;;;;5012099;28;20045;-61
2021/08/02 12:53:24;;;;;;;4.55;1.38;;;26.40;46.00;;;;;;5013011;28;20045;-61
2021/08/02 12:55:51;;;;;;;5.15;1.38;;;26.30;46.10;;;;;;5012580;28;20042;-60
2021/08/02 12:58:18;;;;;;;2.50;1.45;;;26.20;46.90;;;;;;5003217;28;20414;-62
2021/08/02 13:00:45;;;;;;;4.57;1.83;;;26.30;46.90;;;;;;4993234;28;20030;-62